createdAt,value
2022-11-16T00:01:45.581Z,100682.50
2022-11-16T00:04:15.465Z,100682.47
2022-11-16T00:06:42.382Z,100676.47
2022-11-16T00:09:24.114Z,100669.59
2022-11-16T00:12:02.748Z,100655.88
2022-11-16T00:14:32.248Z,100648.16
2022-11-16T00:16:59.983Z,100639.56
2022-11-16T00:19:27.471Z,100631.84
2022-11-16T00:21:54.623Z,100622.41
2022-11-16T00:24:23.432Z,100631.91
2022-11-16T00:26:50.709Z,100636.22
2022-11-16T00:29:20.258Z,100632.81
2022-11-16T00:31:47.709Z,100634.50
2022-11-16T00:34:14.897Z,100624.19
2022-11-16T00:36:42.023Z,100626.69
2022-11-16T00:39:11.870Z,100626.66
2022-11-16T00:41:38.754Z,100624.09
2022-11-16T00:44:05.989Z,100620.63
2022-11-16T00:46:32.883Z,100617.19
2022-11-16T00:48:59.626Z,100614.59
2022-11-16T00:51:26.721Z,100616.31
2022-11-16T00:53:53.654Z,100611.19
2022-11-16T00:56:21.332Z,100617.16
2022-11-16T00:58:48.113Z,100606.88
2022-11-16T01:01:15.675Z,100607.75
2022-11-16T01:03:42.966Z,100606.06
2022-11-16T01:06:11.633Z,100619.81
2022-11-16T01:08:39.708Z,100612.09
2022-11-16T01:11:30.895Z,100609.50
2022-11-16T01:13:58.712Z,100610.31
2022-11-16T01:16:25.463Z,100608.59
2022-11-16T01:18:54.639Z,100608.59
2022-11-16T01:21:22.691Z,100610.34
2022-11-16T01:23:49.865Z,100606.03
2022-11-16T01:26:16.796Z,100590.63
2022-11-16T01:28:44.137Z,100593.16
2022-11-16T01:31:15.541Z,100581.13
2022-11-16T01:33:42.438Z,100585.47
2022-11-16T01:36:17.509Z,100570.03
2022-11-16T01:38:46.645Z,100573.53
2022-11-16T01:41:18.568Z,100564.03
2022-11-16T01:44:00.233Z,100566.59
2022-11-16T01:46:33.136Z,100564.88
2022-11-16T01:49:14.471Z,100548.53
2022-11-16T01:51:45.148Z,100543.34
2022-11-16T01:54:14.218Z,100539.06
2022-11-16T01:56:54.146Z,100533.91
2022-11-16T01:59:32.048Z,100533.88
2022-11-16T02:02:01.283Z,100533.88
2022-11-16T02:04:29.905Z,100521.84
2022-11-16T02:07:19.572Z,100524.44
2022-11-16T02:09:53.742Z,100521.88
2022-11-16T02:12:57.802Z,100521.03
2022-11-16T02:15:33.538Z,100508.16
2022-11-16T02:18:53.209Z,100510.75
2022-11-16T02:21:45.002Z,100518.50
2022-11-16T02:24:42.324Z,100518.50
2022-11-16T02:27:23.636Z,100503.91
2022-11-16T02:29:52.795Z,100501.34
2022-11-16T02:32:30.396Z,100491.03
2022-11-16T02:35:12.301Z,100488.47
2022-11-16T02:37:50.631Z,100487.63
2022-11-16T02:40:20.894Z,100491.06
2022-11-16T02:43:07.397Z,100473.03
2022-11-16T02:45:40.614Z,100473.91
2022-11-16T02:48:24.675Z,100469.59
2022-11-16T02:50:53.440Z,100470.44
2022-11-16T02:53:22.083Z,100477.34
2022-11-16T02:55:49.036Z,100475.56
2022-11-16T02:58:20.833Z,100470.44
2022-11-16T03:01:18.333Z,100454.16
2022-11-16T03:04:01.621Z,100449.00
2022-11-16T03:06:31.568Z,100445.56
2022-11-16T03:08:59.008Z,100443.88
2022-11-16T03:11:48.926Z,100435.28
2022-11-16T03:14:20.626Z,100442.13
2022-11-16T03:16:52.966Z,100437.00
2022-11-16T03:19:34.004Z,100432.72
2022-11-16T03:22:09.847Z,100435.28
2022-11-16T03:24:39.158Z,100431.00
2022-11-16T03:27:29.366Z,100430.13
2022-11-16T03:30:04.928Z,100427.53
2022-11-16T03:32:56.589Z,100424.09
2022-11-16T03:36:01.934Z,100425.00
2022-11-16T03:38:33.601Z,100410.41
2022-11-16T03:41:08.474Z,100424.13
2022-11-16T03:43:38.098Z,100420.72
2022-11-16T03:46:05.846Z,100425.88
2022-11-16T03:48:39.209Z,100427.59
2022-11-16T03:51:13.264Z,100422.44
2022-11-16T03:53:40.775Z,100431.88
2022-11-16T03:56:09.385Z,100426.72
2022-11-16T03:58:37.777Z,100432.69
2022-11-16T04:01:04.776Z,100430.97
2022-11-16T04:03:32.117Z,100420.69
2022-11-16T04:06:17.793Z,100410.41
2022-11-16T04:09:03.281Z,100416.41
2022-11-16T04:11:48.789Z,100400.13
2022-11-16T04:14:44.739Z,100400.97
2022-11-16T04:17:34.984Z,100389.81
2022-11-16T04:20:21.066Z,100385.53
2022-11-16T04:23:21.960Z,100383.81
2022-11-16T04:25:51.197Z,100375.22
2022-11-16T04:28:24.291Z,100378.69
2022-11-16T04:31:32.943Z,100380.38
2022-11-16T04:34:24.822Z,100379.53
2022-11-16T04:37:13.831Z,100383.81
2022-11-16T04:39:41.250Z,100365.78
2022-11-16T04:42:17.474Z,100378.66
2022-11-16T04:45:05.042Z,100364.97
2022-11-16T04:47:49.148Z,100361.50
2022-11-16T04:50:17.664Z,100359.78
2022-11-16T04:52:44.389Z,100356.38
2022-11-16T04:55:13.535Z,100356.34
2022-11-16T04:57:40.562Z,100367.50
2022-11-16T05:00:09.071Z,100358.94
2022-11-16T05:02:37.580Z,100373.53
2022-11-16T05:05:04.890Z,100353.78
2022-11-16T05:07:32.713Z,100358.09
2022-11-16T05:10:06.846Z,100355.50
2022-11-16T05:12:34.685Z,100346.06
2022-11-16T05:15:05.900Z,100328.03
2022-11-16T05:17:34.096Z,100339.19
2022-11-16T05:20:40.483Z,100340.91
2022-11-16T05:23:28.166Z,100332.31
2022-11-16T05:25:56.864Z,100326.31
2022-11-16T05:28:23.590Z,100331.50
2022-11-16T05:30:51.252Z,100318.59
2022-11-16T05:33:22.228Z,100316.91
2022-11-16T05:35:51.646Z,100316.06
2022-11-16T05:38:21.390Z,100316.03
2022-11-16T05:40:52.173Z,100313.44
2022-11-16T05:43:19.005Z,100316.00
2022-11-16T05:45:56.286Z,100310.88
2022-11-16T05:48:23.287Z,100313.47
2022-11-16T05:50:50.141Z,100318.59
2022-11-16T05:53:24.829Z,100316.03
2022-11-16T05:55:52.093Z,100313.44
2022-11-16T05:58:20.249Z,100314.31
2022-11-16T06:00:48.940Z,100304.84
2022-11-16T06:03:17.625Z,100300.59
2022-11-16T06:05:44.549Z,100298.84
2022-11-16T06:08:13.983Z,100302.28
2022-11-16T06:10:41.395Z,100297.13
2022-11-16T06:13:08.386Z,100302.31
2022-11-16T06:15:38.262Z,100304.88
2022-11-16T06:18:06.755Z,100308.34
2022-11-16T06:20:34.784Z,100306.59
2022-11-16T06:23:03.517Z,100313.50
2022-11-16T06:25:33.790Z,100314.34
2022-11-16T06:28:04.100Z,100315.22
2022-11-16T06:30:34.512Z,100318.66
2022-11-16T06:33:02.739Z,100320.34
2022-11-16T06:35:29.924Z,100316.06
2022-11-16T06:37:58.030Z,100315.19
2022-11-16T06:40:26.212Z,100314.31
2022-11-16T06:42:53.426Z,100293.75
2022-11-16T06:45:20.841Z,100295.44
2022-11-16T06:47:51.446Z,100287.72
2022-11-16T06:50:19.410Z,100279.13
2022-11-16T06:52:48.577Z,100283.41
2022-11-16T06:55:16.926Z,100284.25
2022-11-16T06:57:44.058Z,100280.81
2022-11-16T07:00:12.843Z,100278.25
2022-11-16T07:02:40.519Z,100273.91
2022-11-16T07:05:10.996Z,100271.34
2022-11-16T07:07:39.447Z,100280.78
2022-11-16T07:10:06.568Z,100285.94
2022-11-16T07:12:33.464Z,100282.47
2022-11-16T07:15:01.654Z,100283.34
2022-11-16T07:17:31.317Z,100285.06
2022-11-16T07:19:58.190Z,100291.06
2022-11-16T07:22:25.506Z,100291.94
2022-11-16T07:24:53.546Z,100287.63
2022-11-16T07:27:21.299Z,100296.22
2022-11-16T07:29:50.628Z,100295.31
2022-11-16T07:32:39.929Z,100291.91
2022-11-16T07:35:15.559Z,100293.63
2022-11-16T07:37:42.639Z,100292.75
2022-11-16T07:40:10.765Z,100297.06
2022-11-16T07:42:38.802Z,100303.91
2022-11-16T07:45:29.041Z,100298.75
2022-11-16T07:48:05.428Z,100301.34
2022-11-16T07:50:50.839Z,100301.31
2022-11-16T07:53:19.220Z,100298.75
2022-11-16T07:55:53.043Z,100296.16
2022-11-16T07:58:21.668Z,100295.28
2022-11-16T08:00:49.395Z,100298.69
2022-11-16T08:03:21.799Z,100294.41
2022-11-16T08:06:21.264Z,100297.88
2022-11-16T08:08:48.312Z,100280.69
2022-11-16T08:11:17.641Z,100284.94
2022-11-16T08:13:44.906Z,100281.50
2022-11-16T08:16:18.207Z,100281.47
2022-11-16T08:18:47.239Z,100276.31
2022-11-16T08:21:17.205Z,100284.03
2022-11-16T08:23:45.485Z,100290.03
2022-11-16T08:26:15.912Z,100288.25
2022-11-16T08:28:48.491Z,100295.97
2022-11-16T08:31:18.323Z,100299.38
2022-11-16T08:33:50.491Z,100297.69
2022-11-16T08:36:17.865Z,100300.25
2022-11-16T08:38:50.421Z,100288.22
2022-11-16T08:41:20.501Z,100289.97
2022-11-16T08:43:47.838Z,100293.41
2022-11-16T08:46:15.532Z,100300.28
2022-11-16T08:48:44.624Z,100304.56
2022-11-16T08:51:19.278Z,100301.13
2022-11-16T08:53:57.502Z,100307.97
2022-11-16T08:56:30.225Z,100298.53
2022-11-16T08:58:59.167Z,100298.53
2022-11-16T09:01:29.521Z,100301.94
2022-11-16T09:03:56.646Z,100301.94
2022-11-16T09:06:25.815Z,100301.94
2022-11-16T09:08:53.321Z,100310.53
2022-11-16T09:11:22.659Z,100310.53
2022-11-16T09:13:51.600Z,100311.41
2022-11-16T09:16:21.032Z,100301.97
2022-11-16T09:18:50.073Z,100297.63
2022-11-16T09:21:19.123Z,100304.50
2022-11-16T09:23:47.108Z,100307.91
2022-11-16T09:26:14.493Z,100311.38
2022-11-16T09:28:41.377Z,100312.16
2022-11-16T09:31:10.086Z,100318.09
2022-11-16T09:33:37.065Z,100317.22
2022-11-16T09:36:09.163Z,100319.75
2022-11-16T09:39:13.324Z,100325.69
2022-11-16T09:41:52.300Z,100321.38
2022-11-16T09:44:52.877Z,100321.34
2022-11-16T09:47:22.650Z,100311.03
2022-11-16T09:49:58.186Z,100305.78
2022-11-16T09:52:30.445Z,100305.75
2022-11-16T09:54:59.968Z,100302.31
2022-11-16T09:57:37.249Z,100299.75
2022-11-16T10:00:23.734Z,100294.53
2022-11-16T10:03:04.093Z,100278.88
2022-11-16T10:05:39.072Z,100269.34
2022-11-16T10:08:25.156Z,100274.38
2022-11-16T10:11:20.849Z,100270.84
2022-11-16T10:14:06.032Z,100269.19
2022-11-16T10:16:32.859Z,100269.19
2022-11-16T10:19:05.430Z,100271.84
2022-11-16T10:21:33.159Z,100268.44
2022-11-16T10:24:02.521Z,100275.31
2022-11-16T10:26:50.631Z,100265.03
2022-11-16T10:29:49.867Z,100262.53
2022-11-16T10:32:21.168Z,100259.97
2022-11-16T10:34:54.008Z,100260.00
2022-11-16T10:37:22.430Z,100258.28
2022-11-16T10:39:53.355Z,100248.75
2022-11-16T10:42:28.901Z,100251.34
2022-11-16T10:45:08.158Z,100246.22
2022-11-16T10:47:44.867Z,100242.78
2022-11-16T10:50:32.631Z,100235.91
2022-11-16T10:53:00.899Z,100234.88
2022-11-16T10:55:30.593Z,100242.63
2022-11-16T10:58:01.576Z,100225.34
2022-11-16T11:00:33.788Z,100216.72
2022-11-16T11:03:01.096Z,100215.03
2022-11-16T11:05:27.941Z,100208.16
2022-11-16T11:08:03.697Z,100204.69
2022-11-16T11:10:35.652Z,100206.34
2022-11-16T11:13:11.543Z,100207.97
2022-11-16T11:15:39.945Z,100203.69
2022-11-16T11:18:15.609Z,100195.13
2022-11-16T11:20:46.158Z,100186.56
2022-11-16T11:23:23.758Z,100181.44
2022-11-16T11:25:56.566Z,100180.59
2022-11-16T11:28:31.952Z,100173.81
2022-11-16T11:31:01.306Z,100172.09
2022-11-16T11:33:39.639Z,100169.59
2022-11-16T11:36:13.343Z,100165.28
2022-11-16T11:39:25.566Z,100172.19
2022-11-16T11:42:10.796Z,100169.66
2022-11-16T11:44:49.753Z,100168.81
2022-11-16T11:47:56.608Z,100160.25
2022-11-16T11:50:51.083Z,100166.28
2022-11-16T11:53:29.936Z,100170.63
2022-11-16T11:55:59.825Z,100168.84
2022-11-16T11:58:31.122Z,100168.84
2022-11-16T12:01:01.035Z,100169.75
2022-11-16T12:03:28.048Z,100168.03
2022-11-16T12:06:07.758Z,100167.19
2022-11-16T12:08:57.011Z,100162.84
2022-11-16T12:11:38.110Z,100155.94
2022-11-16T12:14:33.407Z,100164.53
2022-11-16T12:17:13.482Z,100157.59
2022-11-16T12:20:01.839Z,100144.72
2022-11-16T12:22:46.830Z,100134.31
2022-11-16T12:25:51.143Z,100126.56
2022-11-16T12:28:51.318Z,100128.22
2022-11-16T12:31:33.441Z,100135.09
2022-11-16T12:34:06.122Z,100133.19
2022-11-16T12:36:32.842Z,100127.06
2022-11-16T12:39:24.476Z,100136.59
2022-11-16T12:42:13.268Z,100134.94
2022-11-16T12:44:45.892Z,100126.31
2022-11-16T12:47:46.869Z,100110.53
2022-11-16T12:50:28.870Z,100120.81
2022-11-16T12:53:25.753Z,100127.78
2022-11-16T12:56:13.986Z,100123.53
2022-11-16T12:58:52.700Z,100110.59
2022-11-16T13:01:25.704Z,100115.78
2022-11-16T13:04:01.502Z,100111.38
2022-11-16T13:06:34.796Z,100104.41
2022-11-16T13:09:30.895Z,100103.56
2022-11-16T13:12:03.380Z,100106.06
2022-11-16T13:14:34.952Z,100096.66
2022-11-16T13:17:04.253Z,100082.84
2022-11-16T13:19:31.895Z,100084.50
2022-11-16T13:22:19.497Z,100087.00
2022-11-16T13:24:48.850Z,100076.50
2022-11-16T13:27:18.285Z,100074.75
2022-11-16T13:30:03.799Z,100078.66
2022-11-16T13:32:53.341Z,100079.38
2022-11-16T13:35:21.029Z,100079.97
2022-11-16T13:37:49.251Z,100086.97
2022-11-16T13:40:30.995Z,100093.09
2022-11-16T13:43:16.858Z,100089.56
2022-11-16T13:45:57.294Z,100085.31
2022-11-16T13:48:38.519Z,100090.56
2022-11-16T13:51:18.986Z,100094.16
2022-11-16T13:56:51.050Z,100094.91
2022-11-16T13:59:25.409Z,100104.41
2022-11-16T14:02:22.713Z,100113.91
2022-11-16T14:05:33.948Z,100121.75
2022-11-16T14:08:20.840Z,100122.81
2022-11-16T14:10:50.673Z,100129.81
2022-11-16T14:13:47.366Z,100137.72
2022-11-16T14:16:20.190Z,100139.44
2022-11-16T14:18:59.026Z,100141.38
2022-11-16T14:21:26.776Z,100141.41
2022-11-16T14:24:06.230Z,100143.06
2022-11-16T14:27:17.032Z,100146.63
2022-11-16T14:30:02.962Z,100150.91
2022-11-16T14:32:43.495Z,100125.13
2022-11-16T14:35:29.675Z,100135.34
2022-11-16T14:38:02.394Z,100133.66
2022-11-16T14:40:29.494Z,100146.66
2022-11-16T14:43:15.921Z,100141.41
2022-11-16T14:45:48.251Z,100144.00
2022-11-16T14:48:17.739Z,100150.91
2022-11-16T14:50:57.899Z,100156.16
2022-11-16T14:53:26.479Z,100156.22
2022-11-16T14:56:06.452Z,100157.94
2022-11-16T14:58:33.309Z,100162.25
2022-11-16T15:01:02.940Z,100157.22
2022-11-16T15:03:35.540Z,100153.81
2022-11-16T15:06:04.793Z,100147.00
2022-11-16T15:08:58.123Z,100147.78
2022-11-16T15:11:50.198Z,100148.72
2022-11-16T15:14:22.723Z,100147.94
2022-11-16T15:16:54.472Z,100148.91
2022-11-16T15:19:22.112Z,100156.72
2022-11-16T15:21:58.211Z,100156.81
2022-11-16T15:24:32.184Z,100152.53
2022-11-16T15:27:08.525Z,100155.19
2022-11-16T15:29:36.286Z,100151.75
2022-11-16T15:32:03.412Z,100158.63
2022-11-16T15:34:31.479Z,100150.91
2022-11-16T15:36:58.302Z,100151.78
2022-11-16T15:39:32.334Z,100156.97
2022-11-16T15:42:03.717Z,100164.63
2022-11-16T15:44:31.980Z,100165.44
2022-11-16T15:46:59.505Z,100162.03
2022-11-16T15:49:32.447Z,100175.06
2022-11-16T15:52:00.139Z,100179.44
2022-11-16T15:54:54.971Z,100167.41
2022-11-16T15:57:24.049Z,100156.25
2022-11-16T15:59:57.272Z,100157.16
2022-11-16T16:02:29.914Z,100156.34
2022-11-16T16:04:56.934Z,100153.84
2022-11-16T16:07:41.855Z,100162.47
2022-11-16T16:10:13.207Z,100164.22
2022-11-16T16:13:00.646Z,100160.78
2022-11-16T16:15:36.585Z,100157.34
2022-11-16T16:18:13.963Z,100160.78
2022-11-16T16:20:48.838Z,100151.34
2022-11-16T16:23:16.448Z,100154.81
2022-11-16T16:25:49.077Z,100155.63
2022-11-16T16:28:17.407Z,100153.06
2022-11-16T16:30:44.342Z,100165.16
2022-11-16T16:33:19.654Z,100169.44
2022-11-16T16:35:49.891Z,100172.88
2022-11-16T16:38:17.213Z,100177.19
2022-11-16T16:40:44.088Z,100179.81
2022-11-16T16:43:11.087Z,100177.28
2022-11-16T16:45:41.664Z,100176.38
2022-11-16T16:48:09.707Z,100183.31
2022-11-16T16:50:37.393Z,100184.16
2022-11-16T16:53:05.021Z,100189.41
2022-11-16T16:55:36.974Z,100188.56
2022-11-16T16:58:04.976Z,100192.00
2022-11-16T17:00:32.413Z,100201.47
2022-11-16T17:02:59.497Z,100194.56
2022-11-16T17:05:27.115Z,100198.00
2022-11-16T17:07:56.926Z,100203.16
2022-11-16T17:10:24.384Z,100197.16
2022-11-16T17:12:55.282Z,100204.06
2022-11-16T17:15:22.904Z,100203.22
2022-11-16T17:17:50.485Z,100194.63
2022-11-16T17:20:17.853Z,100199.84
2022-11-16T17:22:45.289Z,100202.47
2022-11-16T17:25:12.630Z,100211.09
2022-11-16T17:27:39.500Z,100204.22
2022-11-16T17:30:07.375Z,100208.56
2022-11-16T17:32:34.807Z,100216.31
2022-11-16T17:35:01.836Z,100218.06
2022-11-16T17:37:28.790Z,100214.75
2022-11-16T17:39:55.875Z,100219.06
2022-11-16T17:42:23.116Z,100213.06
2022-11-16T17:44:50.095Z,100213.91
2022-11-16T17:47:17.109Z,100219.94
2022-11-16T17:49:44.221Z,100221.66
2022-11-16T17:52:11.309Z,100224.25
2022-11-16T17:54:38.358Z,100228.53
2022-11-16T17:57:05.437Z,100229.38
2022-11-16T17:59:32.986Z,100228.53
2022-11-16T18:01:59.832Z,100235.41
2022-11-16T18:04:34.593Z,100238.84
2022-11-16T18:07:01.807Z,100236.22
2022-11-16T18:09:29.079Z,100232.81
2022-11-16T18:11:56.180Z,100229.38
2022-11-16T18:14:23.085Z,100236.25
2022-11-16T18:16:50.161Z,100238.78
2022-11-16T18:19:19.253Z,100235.34
2022-11-16T18:21:46.835Z,100245.63
2022-11-16T18:24:13.957Z,100243.03
2022-11-16T18:26:41.458Z,100246.47
2022-11-16T18:29:15.924Z,100247.38
2022-11-16T18:31:43.485Z,100243.09
2022-11-16T18:34:15.775Z,100239.66
2022-11-16T18:36:43.803Z,100240.50
2022-11-16T18:39:10.841Z,100236.19
2022-11-16T18:41:43.936Z,100235.34
2022-11-16T18:44:14.981Z,100247.38
2022-11-16T18:46:43.366Z,100249.09
2022-11-16T18:49:10.331Z,100258.50
2022-11-16T18:51:37.141Z,100263.56
2022-11-16T18:54:04.138Z,100259.22
2022-11-16T18:56:31.102Z,100265.13
2022-11-16T18:58:57.804Z,100260.78
2022-11-16T19:01:26.763Z,100258.22
2022-11-16T19:03:56.163Z,100271.88
2022-11-16T19:06:24.052Z,100262.44
2022-11-16T19:09:03.992Z,100264.97
2022-11-16T19:11:31.216Z,100253.81
2022-11-16T19:14:00.892Z,100259.09
2022-11-16T19:16:28.372Z,100259.97
2022-11-16T19:18:55.222Z,100257.47
2022-11-16T19:21:22.945Z,100260.97
2022-11-16T19:23:52.279Z,100267.81
2022-11-16T19:26:21.084Z,100263.53
2022-11-16T19:28:49.896Z,100256.69
2022-11-16T19:31:23.553Z,100259.13
2022-11-16T19:33:59.951Z,100254.81
2022-11-16T19:36:28.568Z,100255.66
2022-11-16T19:38:56.293Z,100245.31
2022-11-16T19:41:24.110Z,100238.47
2022-11-16T19:43:59.911Z,100233.31
2022-11-16T19:46:33.170Z,100234.97
2022-11-16T19:49:01.342Z,100229.88
2022-11-16T19:51:30.306Z,100229.88
2022-11-16T19:54:02.507Z,100224.75
2022-11-16T19:56:34.414Z,100225.63
2022-11-16T19:59:01.471Z,100229.06
2022-11-16T20:01:33.003Z,100216.22
2022-11-16T20:04:03.499Z,100225.66
2022-11-16T20:06:55.613Z,100232.47
2022-11-16T20:09:23.628Z,100225.59
2022-11-16T20:11:50.582Z,100225.59
2022-11-16T20:14:17.897Z,100240.16
2022-11-16T20:16:47.790Z,100243.50
2022-11-16T20:19:15.887Z,100238.31
2022-11-16T20:21:48.111Z,100238.38
2022-11-16T20:24:16.541Z,100240.06
2022-11-16T20:26:46.826Z,100246.09
2022-11-16T20:29:17.677Z,100245.94
2022-11-16T20:31:46.284Z,100245.94
2022-11-16T20:34:16.603Z,100240.84
2022-11-16T20:37:08.785Z,100233.03
2022-11-16T20:39:36.298Z,100234.69
2022-11-16T20:42:03.388Z,100231.31
2022-11-16T20:44:31.487Z,100227.72
2022-11-16T20:46:58.746Z,100237.00
2022-11-16T20:49:26.279Z,100237.06
2022-11-16T20:51:53.625Z,100233.75
2022-11-16T20:54:21.603Z,100237.19
2022-11-16T20:56:49.987Z,100233.75
2022-11-16T20:59:17.444Z,100232.03
2022-11-16T21:01:47.882Z,100235.50
2022-11-16T21:04:16.117Z,100238.84
2022-11-16T21:06:43.100Z,100243.03
2022-11-16T21:09:23.037Z,100246.34
2022-11-16T21:12:09.472Z,100256.50
2022-11-16T21:14:37.528Z,100252.25
2022-11-16T21:17:04.971Z,100256.53
2022-11-16T21:19:32.857Z,100258.34
2022-11-16T21:21:59.721Z,100256.50
2022-11-16T21:24:28.637Z,100253.19
2022-11-16T21:26:55.576Z,100252.34
2022-11-16T21:29:26.120Z,100257.25
2022-11-16T21:31:55.187Z,100258.84
2022-11-16T21:34:24.696Z,100260.59
2022-11-16T21:36:52.792Z,100263.16
2022-11-16T21:39:19.584Z,100271.69
2022-11-16T21:41:47.303Z,100258.94
2022-11-16T21:44:14.158Z,100257.34
2022-11-16T21:46:43.678Z,100248.16
2022-11-16T21:49:11.053Z,100253.34
2022-11-16T21:51:38.074Z,100246.50
2022-11-16T21:54:06.709Z,100235.47
2022-11-16T21:56:33.789Z,100242.31
2022-11-16T21:59:01.707Z,100232.13
2022-11-16T22:01:48.797Z,100236.31
2022-11-16T22:04:51.552Z,100232.94
2022-11-16T22:07:33.936Z,100240.75
2022-11-16T22:10:02.047Z,100234.78
2022-11-16T22:12:29.559Z,100248.50
2022-11-16T22:14:59.002Z,100253.66
2022-11-16T22:17:26.514Z,100255.34
2022-11-16T22:19:53.897Z,100253.69
2022-11-16T22:22:21.274Z,100257.13
2022-11-16T22:24:48.471Z,100256.16
2022-11-16T22:27:18.937Z,100256.09
2022-11-16T22:29:47.041Z,100253.31
2022-11-16T22:32:13.980Z,100260.22
2022-11-16T22:34:41.020Z,100256.03
2022-11-16T22:37:07.803Z,100250.97
2022-11-16T22:39:34.907Z,100249.31
2022-11-16T22:42:01.773Z,100249.25
2022-11-16T22:44:30.312Z,100251.84
2022-11-16T22:46:57.100Z,100255.28
2022-11-16T22:49:49.008Z,100240.72
2022-11-16T22:52:17.854Z,100229.66
2022-11-16T22:54:44.685Z,100227.06
2022-11-16T22:57:15.564Z,100226.25
2022-11-16T22:59:43.394Z,100221.94
2022-11-16T23:02:10.082Z,100222.88
2022-11-16T23:04:37.108Z,100227.25
2022-11-16T23:07:03.917Z,100231.47
2022-11-16T23:09:32.848Z,100226.28
2022-11-16T23:12:18.171Z,100227.91
2022-11-16T23:15:03.971Z,100230.50
2022-11-16T23:17:30.974Z,100229.53
2022-11-16T23:20:17.764Z,100233.81
2022-11-16T23:23:03.510Z,100230.44
2022-11-16T23:25:48.776Z,100245.84
2022-11-16T23:28:16.871Z,100237.25
2022-11-16T23:30:43.914Z,100238.97
2022-11-16T23:33:13.367Z,100238.16
2022-11-16T23:35:40.161Z,100229.69
2022-11-16T23:38:08.400Z,100233.03
2022-11-16T23:40:39.891Z,100231.25
2022-11-16T23:43:28.751Z,100232.13
2022-11-16T23:45:55.731Z,100225.31
2022-11-16T23:48:22.492Z,100226.22
2022-11-16T23:50:50.188Z,100220.25
2022-11-16T23:53:16.944Z,100217.75
2022-11-16T23:55:43.959Z,100219.50
2022-11-16T23:58:14.846Z,100220.38
